createdAt,value
2023-04-17T00:01:11.763Z,99438.55
2023-04-17T00:03:39.751Z,99438.48
2023-04-17T00:06:08.039Z,99437.88
2023-04-17T00:08:36.110Z,99436.79
2023-04-17T00:11:07.717Z,99432.52
2023-04-17T00:13:37.242Z,99431.23
2023-04-17T00:16:05.576Z,99431.54
2023-04-17T00:18:33.458Z,99431.16
2023-04-17T00:21:01.400Z,99432.52
2023-04-17T00:23:29.302Z,99432.70
2023-04-17T00:25:57.282Z,99432.90
2023-04-17T00:28:25.169Z,99430.40
2023-04-17T00:30:53.129Z,99428.78
2023-04-17T00:33:21.049Z,99429.41
2023-04-17T00:35:49.189Z,99428.94
2023-04-17T00:38:17.592Z,99431.45
2023-04-17T00:40:46.344Z,99433.25
2023-04-17T00:43:14.577Z,99429.46
2023-04-17T00:45:42.535Z,99429.84
2023-04-17T00:48:11.220Z,99424.61
2023-04-17T00:50:39.372Z,99427.95
2023-04-17T00:53:07.307Z,99432.44
2023-04-17T00:55:38.027Z,99432.71
2023-04-17T00:58:06.356Z,99434.38
2023-04-17T01:00:35.000Z,99435.01
2023-04-17T01:03:03.329Z,99435.61
2023-04-17T01:05:31.554Z,99436.21
2023-04-17T01:07:59.494Z,99434.93
2023-04-17T01:10:27.775Z,99435.77
2023-04-17T01:13:06.607Z,99436.83
2023-04-17T01:15:36.066Z,99434.20
2023-04-17T01:18:04.211Z,99432.42
2023-04-17T01:20:32.546Z,99437.58
2023-04-17T01:23:01.378Z,99437.31
2023-04-17T01:25:29.629Z,99433.66
2023-04-17T01:27:57.492Z,99433.04
2023-04-17T01:30:25.795Z,99429.90
2023-04-17T01:33:12.180Z,99428.16
2023-04-17T01:35:40.031Z,99429.65
2023-04-17T01:38:07.949Z,99427.96
2023-04-17T01:40:35.890Z,99430.23
2023-04-17T01:43:03.783Z,99435.55
2023-04-17T01:45:31.673Z,99437.10
2023-04-17T01:48:01.001Z,99437.64
2023-04-17T01:50:28.982Z,99439.31
2023-04-17T01:52:56.916Z,99439.48
2023-04-17T01:55:24.846Z,99438.95
2023-04-17T01:57:53.367Z,99439.66
2023-04-17T02:00:21.810Z,99445.66
2023-04-17T02:02:49.811Z,99451.25
2023-04-17T02:05:17.906Z,99449.85
2023-04-17T02:07:45.803Z,99451.57
2023-04-17T02:10:13.764Z,99453.96
2023-04-17T02:12:41.650Z,99457.09
2023-04-17T02:15:09.954Z,99458.24
2023-04-17T02:17:38.043Z,99463.36
2023-04-17T02:20:09.100Z,99460.10
2023-04-17T02:22:37.076Z,99461.19
2023-04-17T02:25:05.228Z,99461.88
2023-04-17T02:27:33.089Z,99463.13
2023-04-17T02:30:01.114Z,99465.46
2023-04-17T02:32:29.541Z,99466.42
2023-04-17T02:34:57.468Z,99467.85
2023-04-17T02:37:25.406Z,99466.52
2023-04-17T02:39:54.519Z,99465.86
2023-04-17T02:42:22.433Z,99462.91
2023-04-17T02:44:50.500Z,99463.38
2023-04-17T02:47:18.829Z,99465.46
2023-04-17T02:49:47.097Z,99462.15
2023-04-17T02:52:15.029Z,99462.98
2023-04-17T02:54:42.905Z,99463.96
2023-04-17T02:57:11.311Z,99462.68
2023-04-17T02:59:39.338Z,99465.59
2023-04-17T03:02:08.086Z,99464.83
2023-04-17T03:04:38.770Z,99466.68
2023-04-17T03:07:07.000Z,99471.64
2023-04-17T03:09:35.064Z,99473.63
2023-04-17T03:12:05.839Z,99474.88
2023-04-17T03:14:33.671Z,99476.25
2023-04-17T03:17:01.622Z,99475.49
2023-04-17T03:19:29.594Z,99480.67
2023-04-17T03:21:57.482Z,99482.87
2023-04-17T03:24:25.368Z,99486.09
2023-04-17T03:26:54.148Z,99485.32
2023-04-17T03:29:22.790Z,99486.48
2023-04-17T03:31:50.809Z,99484.29
2023-04-17T03:34:21.426Z,99483.13
2023-04-17T03:36:50.006Z,99482.64
2023-04-17T03:39:18.026Z,99484.11
2023-04-17T03:41:46.118Z,99483.80
2023-04-17T03:44:14.120Z,99479.66
2023-04-17T03:46:42.063Z,99484.66
2023-04-17T03:49:10.115Z,99488.09
2023-04-17T03:51:40.193Z,99492.74
2023-04-17T03:54:12.969Z,99487.81
2023-04-17T03:56:41.262Z,99486.58
2023-04-17T03:59:09.585Z,99487.30
2023-04-17T04:01:44.225Z,99486.98
2023-04-17T04:04:21.594Z,99486.83
2023-04-17T04:06:51.086Z,99493.86
2023-04-17T04:09:21.326Z,99497.54
2023-04-17T04:11:49.656Z,99500.11
2023-04-17T04:14:17.732Z,99504.79
2023-04-17T04:16:47.472Z,99508.08
2023-04-17T04:19:15.584Z,99506.27
2023-04-17T04:21:45.220Z,99512.00
2023-04-17T04:24:14.469Z,99511.73
2023-04-17T04:26:43.394Z,99508.48
2023-04-17T04:29:12.183Z,99508.79
2023-04-17T04:31:55.586Z,99509.75
2023-04-17T04:34:25.956Z,99510.21
2023-04-17T04:36:53.950Z,99514.41
2023-04-17T04:39:31.325Z,99517.76
2023-04-17T04:42:05.932Z,99517.45
2023-04-17T04:44:41.893Z,99514.70
2023-04-17T04:47:10.648Z,99515.79
2023-04-17T04:49:38.747Z,99515.95
2023-04-17T04:52:07.101Z,99518.11
2023-04-17T04:54:35.490Z,99523.91
2023-04-17T04:57:05.196Z,99527.71
2023-04-17T04:59:33.435Z,99528.39
2023-04-17T05:02:15.899Z,99530.15
2023-04-17T05:04:44.663Z,99528.98
2023-04-17T05:07:13.704Z,99528.45
2023-04-17T05:09:44.422Z,99528.64
2023-04-17T05:12:12.969Z,99530.21
2023-04-17T05:14:41.663Z,99528.96
2023-04-17T05:17:10.093Z,99536.44
2023-04-17T05:19:37.966Z,99540.77
2023-04-17T05:22:07.681Z,99538.89
2023-04-17T05:24:39.870Z,99541.31
2023-04-17T05:27:07.813Z,99540.71
2023-04-17T05:29:37.352Z,99542.12
2023-04-17T05:32:05.471Z,99543.48
2023-04-17T05:34:49.749Z,99544.05
2023-04-17T05:37:19.451Z,99541.69
2023-04-17T05:39:47.369Z,99544.63
2023-04-17T05:42:15.299Z,99544.63
2023-04-17T05:44:43.431Z,99550.79
2023-04-17T05:47:11.298Z,99551.30
2023-04-17T05:49:39.433Z,99553.09
2023-04-17T05:52:07.361Z,99553.44
2023-04-17T05:54:37.591Z,99551.20
2023-04-17T05:57:06.771Z,99548.52
2023-04-17T05:59:34.967Z,99546.10
2023-04-17T06:02:03.211Z,99550.77
2023-04-17T06:04:32.220Z,99548.23
2023-04-17T06:07:02.917Z,99549.64
2023-04-17T06:09:30.814Z,99548.55
2023-04-17T06:11:59.294Z,99549.93
2023-04-17T06:14:27.558Z,99551.24
2023-04-17T06:16:55.823Z,99552.42
2023-04-17T06:19:24.794Z,99555.21
2023-04-17T06:21:52.696Z,99554.71
2023-04-17T06:24:20.780Z,99557.14
2023-04-17T06:26:48.893Z,99561.34
2023-04-17T06:29:16.897Z,99562.23
2023-04-17T06:31:45.178Z,99564.30
2023-04-17T06:34:15.432Z,99567.67
2023-04-17T06:36:44.101Z,99573.33
2023-04-17T06:39:12.369Z,99574.94
2023-04-17T06:41:40.365Z,99579.63
2023-04-17T06:44:08.399Z,99584.04
2023-04-17T06:46:47.124Z,99585.98
2023-04-17T06:49:15.418Z,99584.56
2023-04-17T06:51:45.892Z,99582.09
2023-04-17T06:54:14.238Z,99586.08
2023-04-17T06:56:42.115Z,99585.85
2023-04-17T06:59:10.435Z,99591.70
2023-04-17T07:01:40.364Z,99595.40
2023-04-17T07:04:09.552Z,99599.41
2023-04-17T07:06:39.448Z,99603.37
2023-04-17T07:09:07.543Z,99606.70
2023-04-17T07:11:35.462Z,99607.02
2023-04-17T07:14:03.368Z,99598.90
2023-04-17T07:16:31.406Z,99596.27
2023-04-17T07:18:59.371Z,99593.71
2023-04-17T07:21:28.022Z,99596.30
2023-04-17T07:23:55.986Z,99593.45
2023-04-17T07:26:23.940Z,99594.42
2023-04-17T07:28:51.826Z,99592.70
2023-04-17T07:31:19.695Z,99591.27
2023-04-17T07:33:47.698Z,99591.54
2023-04-17T07:36:17.121Z,99596.80
2023-04-17T07:38:45.108Z,99596.57
2023-04-17T07:41:13.116Z,99595.64
2023-04-17T07:43:41.192Z,99597.61
2023-04-17T07:46:09.138Z,99596.23
2023-04-17T07:48:36.953Z,99604.59
2023-04-17T07:51:04.923Z,99598.74
2023-04-17T07:53:32.945Z,99605.96
2023-04-17T07:56:00.819Z,99605.61
2023-04-17T07:58:28.700Z,99605.77
2023-04-17T08:00:56.582Z,99604.71
2023-04-17T08:03:25.734Z,99613.89
2023-04-17T08:05:54.230Z,99616.34
2023-04-17T08:08:23.788Z,99615.59
2023-04-17T08:10:52.325Z,99613.48
2023-04-17T08:13:20.502Z,99616.19
2023-04-17T08:15:48.393Z,99625.02
2023-04-17T08:18:16.380Z,99627.81
2023-04-17T08:20:44.296Z,99635.13
2023-04-17T08:23:12.315Z,99638.70
2023-04-17T08:25:40.284Z,99642.48
2023-04-17T08:28:08.198Z,99642.00
2023-04-17T08:30:36.413Z,99643.17
2023-04-17T08:33:04.435Z,99642.95
2023-04-17T08:35:32.579Z,99642.16
2023-04-17T08:38:00.523Z,99639.98
2023-04-17T08:40:28.762Z,99645.33
2023-04-17T08:42:58.426Z,99647.80
2023-04-17T08:45:26.353Z,99651.91
2023-04-17T08:47:54.291Z,99653.50
2023-04-17T08:50:22.677Z,99661.40
2023-04-17T08:52:52.014Z,99663.41
2023-04-17T08:55:24.883Z,99659.70
2023-04-17T08:58:01.178Z,99668.46
2023-04-17T09:00:34.275Z,99670.59
2023-04-17T09:03:05.194Z,99675.32
2023-04-17T09:05:34.350Z,99674.48
2023-04-17T09:08:17.488Z,99673.20
2023-04-17T09:10:47.712Z,99675.18
2023-04-17T09:13:27.279Z,99674.19
2023-04-17T09:16:13.192Z,99674.81
2023-04-17T09:18:43.053Z,99679.37
2023-04-17T09:21:10.978Z,99683.00
2023-04-17T09:23:54.318Z,99684.68
2023-04-17T09:26:23.798Z,99681.95
2023-04-17T09:29:03.813Z,99678.65
2023-04-17T09:31:34.776Z,99675.94
2023-04-17T09:34:08.705Z,99675.65
2023-04-17T09:36:38.458Z,99676.64
2023-04-17T09:39:18.085Z,99671.05
2023-04-17T09:41:46.882Z,99667.63
2023-04-17T09:44:28.580Z,99665.55
2023-04-17T09:46:57.340Z,99670.45
2023-04-17T09:49:37.650Z,99669.17
2023-04-17T09:52:06.753Z,99666.71
2023-04-17T09:54:38.012Z,99667.55
2023-04-17T09:57:10.834Z,99673.48
2023-04-17T09:59:41.226Z,99673.36
2023-04-17T10:02:10.467Z,99671.73
2023-04-17T10:04:42.701Z,99670.72
2023-04-17T10:07:13.122Z,99674.52
2023-04-17T10:09:42.048Z,99670.13
2023-04-17T10:12:15.768Z,99667.45
2023-04-17T10:14:48.303Z,99668.20
2023-04-17T10:17:31.397Z,99664.35
2023-04-17T10:20:29.691Z,99660.23
2023-04-17T10:22:57.528Z,99656.94
2023-04-17T10:25:27.274Z,99656.84
2023-04-17T10:28:00.505Z,99650.02
2023-04-17T10:30:57.608Z,99650.85
2023-04-17T10:33:27.202Z,99641.83
2023-04-17T10:35:55.315Z,99645.09
2023-04-17T10:38:36.378Z,99644.98
2023-04-17T10:41:09.156Z,99642.73
2023-04-17T10:43:41.687Z,99643.77
2023-04-17T10:46:12.498Z,99643.84
2023-04-17T10:48:52.822Z,99638.77
2023-04-17T10:51:23.908Z,99640.98
2023-04-17T10:53:56.698Z,99640.77
2023-04-17T10:56:27.604Z,99641.23
2023-04-17T10:59:01.611Z,99637.58
2023-04-17T11:01:32.161Z,99637.70
2023-04-17T11:04:00.543Z,99641.98
2023-04-17T11:06:31.366Z,99640.36
2023-04-17T11:09:00.459Z,99631.83
2023-04-17T11:11:40.546Z,99625.73
2023-04-17T11:14:14.966Z,99625.21
2023-04-17T11:16:46.461Z,99623.35
2023-04-17T11:19:19.725Z,99616.02
2023-04-17T11:21:49.365Z,99615.13
2023-04-17T11:24:28.513Z,99618.02
2023-04-17T11:27:00.632Z,99614.89
2023-04-17T11:29:28.787Z,99614.44
2023-04-17T11:31:58.292Z,99627.89
2023-04-17T11:34:27.084Z,99628.11
2023-04-17T11:36:57.743Z,99630.05
2023-04-17T11:39:31.342Z,99630.61
2023-04-17T11:41:59.613Z,99628.20
2023-04-17T11:44:29.020Z,99623.56
2023-04-17T11:47:00.969Z,99623.81
2023-04-17T11:49:33.517Z,99627.52
2023-04-17T11:52:04.176Z,99626.88
2023-04-17T11:54:37.200Z,99624.80
2023-04-17T11:57:12.610Z,99625.29
2023-04-17T11:59:46.075Z,99625.98
2023-04-17T12:02:15.174Z,99627.87
2023-04-17T12:04:43.440Z,99625.27
2023-04-17T12:07:26.210Z,99620.34
2023-04-17T12:09:57.822Z,99623.80
2023-04-17T12:12:25.878Z,99629.04
2023-04-17T12:14:53.892Z,99631.20
2023-04-17T12:17:22.183Z,99628.17
2023-04-17T12:19:50.355Z,99630.09
2023-04-17T12:22:18.271Z,99626.98
2023-04-17T12:24:46.243Z,99624.04
2023-04-17T12:27:14.102Z,99614.59
2023-04-17T12:29:44.350Z,99613.35
2023-04-17T12:32:13.259Z,99611.77
2023-04-17T12:34:41.240Z,99618.27
2023-04-17T12:37:09.246Z,99619.08
2023-04-17T12:39:37.325Z,99618.28
2023-04-17T12:42:05.499Z,99627.74
2023-04-17T12:44:33.674Z,99630.79
2023-04-17T12:47:01.827Z,99627.06
2023-04-17T12:49:29.896Z,99620.41
2023-04-17T12:51:57.794Z,99624.75
2023-04-17T12:54:25.799Z,99622.36
2023-04-17T12:56:54.321Z,99623.79
2023-04-17T12:59:22.181Z,99618.69
2023-04-17T13:01:50.058Z,99621.73
2023-04-17T13:04:18.330Z,99622.90
2023-04-17T13:06:46.757Z,99618.94
2023-04-17T13:09:16.883Z,99617.98
2023-04-17T13:11:44.754Z,99617.27
2023-04-17T13:14:12.770Z,99616.02
2023-04-17T13:16:40.877Z,99613.73
2023-04-17T13:19:09.215Z,99617.70
2023-04-17T13:21:37.067Z,99612.89
2023-04-17T13:24:05.389Z,99605.55
2023-04-17T13:26:33.233Z,99605.59
2023-04-17T13:29:01.132Z,99599.44
2023-04-17T13:31:29.124Z,99600.06
2023-04-17T13:33:57.389Z,99606.81
2023-04-17T13:36:25.829Z,99606.71
2023-04-17T13:38:53.756Z,99611.14
2023-04-17T13:41:21.694Z,99612.20
2023-04-17T13:43:49.645Z,99615.59
2023-04-17T13:46:17.595Z,99612.23
2023-04-17T13:48:46.324Z,99614.27
2023-04-17T13:51:14.646Z,99612.57
2023-04-17T13:53:42.539Z,99608.20
2023-04-17T13:56:10.453Z,99614.08
2023-04-17T13:58:40.410Z,99616.30
2023-04-17T14:01:09.045Z,99614.59
2023-04-17T14:03:39.762Z,99617.27
2023-04-17T14:06:08.579Z,99620.30
2023-04-17T14:08:36.587Z,99617.88
2023-04-17T14:11:04.684Z,99610.70
2023-04-17T14:13:32.539Z,99609.23
2023-04-17T14:16:00.424Z,99603.58
2023-04-17T14:18:28.578Z,99609.02
2023-04-17T14:20:56.746Z,99611.91
2023-04-17T14:23:24.691Z,99610.14
2023-04-17T14:25:52.653Z,99611.15
2023-04-17T14:28:21.333Z,99612.02
2023-04-17T14:30:50.147Z,99611.88
2023-04-17T14:33:18.136Z,99612.97
2023-04-17T14:35:46.072Z,99611.66
2023-04-17T14:38:13.976Z,99611.57
2023-04-17T14:40:41.847Z,99610.41
2023-04-17T14:43:09.793Z,99604.87
2023-04-17T14:45:38.007Z,99607.21
2023-04-17T14:48:06.163Z,99607.25
2023-04-17T14:50:34.142Z,99607.36
2023-04-17T14:53:03.494Z,99604.67
2023-04-17T14:55:31.476Z,99600.33
2023-04-17T14:57:59.566Z,99594.88
2023-04-17T15:00:27.435Z,99594.86
2023-04-17T15:02:55.622Z,99599.73
2023-04-17T15:05:23.742Z,99605.10
2023-04-17T15:07:51.680Z,99605.15
2023-04-17T15:10:19.676Z,99606.27
2023-04-17T15:12:47.536Z,99607.33
2023-04-17T15:15:15.395Z,99606.81
2023-04-17T15:17:43.358Z,99611.39
2023-04-17T15:20:11.521Z,99607.48
2023-04-17T15:22:39.460Z,99605.18
2023-04-17T15:25:07.614Z,99604.35
2023-04-17T15:27:35.541Z,99609.73
2023-04-17T15:30:06.624Z,99613.19
2023-04-17T15:32:34.501Z,99606.09
2023-04-17T15:35:02.766Z,99607.62
2023-04-17T15:37:30.738Z,99614.05
2023-04-17T15:39:58.758Z,99612.52
2023-04-17T15:42:27.830Z,99615.40
2023-04-17T15:44:56.071Z,99618.32
2023-04-17T15:47:24.110Z,99621.82
2023-04-17T15:49:51.940Z,99622.95
2023-04-17T15:52:19.811Z,99621.11
2023-04-17T15:54:47.744Z,99628.69
2023-04-17T15:57:15.747Z,99627.50
2023-04-17T15:59:43.665Z,99625.05
2023-04-17T16:02:13.438Z,99631.20
2023-04-17T16:04:43.707Z,99626.22
2023-04-17T16:07:12.220Z,99632.26
2023-04-17T16:09:40.650Z,99631.90
2023-04-17T16:12:10.021Z,99631.40
2023-04-17T16:14:38.093Z,99632.56
2023-04-17T16:17:06.002Z,99631.39
2023-04-17T16:19:35.326Z,99629.11
2023-04-17T16:22:03.228Z,99633.91
2023-04-17T16:24:31.143Z,99629.79
2023-04-17T16:27:01.487Z,99630.28
2023-04-17T16:29:29.472Z,99629.36
2023-04-17T16:31:57.577Z,99633.84
2023-04-17T16:34:25.627Z,99634.20
2023-04-17T16:36:53.591Z,99629.39
2023-04-17T16:39:21.732Z,99628.05
2023-04-17T16:41:52.161Z,99632.73
2023-04-17T16:44:20.079Z,99631.16
2023-04-17T16:49:18.922Z,99635.89
2023-04-17T16:51:46.899Z,99631.52
2023-04-17T16:54:14.936Z,99638.21
2023-04-17T16:56:43.083Z,99636.14
2023-04-17T16:59:11.760Z,99642.72
2023-04-17T17:01:39.989Z,99651.11
2023-04-17T17:04:08.169Z,99649.86
2023-04-17T17:06:36.231Z,99651.70
2023-04-17T17:09:04.156Z,99650.30
2023-04-17T17:11:32.094Z,99650.89
2023-04-17T17:14:00.154Z,99655.73
2023-04-17T17:16:28.272Z,99660.25
2023-04-17T17:18:56.364Z,99662.39
2023-04-17T17:21:24.235Z,99662.14
2023-04-17T17:23:52.158Z,99662.14
2023-04-17T17:26:20.147Z,99663.52
2023-04-17T17:28:51.249Z,99670.92
2023-04-17T17:31:20.034Z,99668.64
2023-04-17T17:33:53.901Z,99673.46
2023-04-17T17:36:21.989Z,99674.56
2023-04-17T17:38:55.696Z,99676.98
2023-04-17T17:41:24.240Z,99684.70
2023-04-17T17:43:52.633Z,99678.73
2023-04-17T17:46:21.328Z,99680.09
2023-04-17T17:48:49.326Z,99685.39
2023-04-17T17:51:17.235Z,99684.43
2023-04-17T17:53:45.660Z,99687.92
2023-04-17T17:56:13.953Z,99687.91
2023-04-17T17:58:42.212Z,99690.20
2023-04-17T18:01:10.516Z,99690.80
2023-04-17T18:03:38.930Z,99692.85
2023-04-17T18:06:07.133Z,99686.41
2023-04-17T18:08:35.934Z,99686.84
2023-04-17T18:11:04.267Z,99689.92
2023-04-17T18:13:32.664Z,99694.52
2023-04-17T18:16:03.904Z,99695.42
2023-04-17T18:18:31.926Z,99699.67
2023-04-17T18:20:59.826Z,99700.81
2023-04-17T18:23:28.106Z,99699.87
2023-04-17T18:25:58.090Z,99705.60
2023-04-17T18:28:27.330Z,99707.26
2023-04-17T18:30:55.321Z,99704.98
2023-04-17T18:33:23.354Z,99708.62
2023-04-17T18:35:51.930Z,99710.44
2023-04-17T18:38:20.332Z,99713.11
2023-04-17T18:40:53.530Z,99712.27
2023-04-17T18:43:21.812Z,99710.03
2023-04-17T18:45:50.006Z,99711.84
2023-04-17T18:48:23.930Z,99717.52
2023-04-17T18:50:52.511Z,99718.35
2023-04-17T18:53:21.051Z,99720.02
2023-04-17T18:55:49.199Z,99722.39
2023-04-17T18:58:17.392Z,99727.34
2023-04-17T19:00:45.454Z,99731.95
2023-04-17T19:03:13.598Z,99734.45
2023-04-17T19:05:41.875Z,99733.73
2023-04-17T19:08:10.342Z,99735.88
2023-04-17T19:10:40.010Z,99735.02
2023-04-17T19:13:09.819Z,99735.27
2023-04-17T19:15:38.090Z,99741.25
2023-04-17T19:18:06.758Z,99743.06
2023-04-17T19:20:36.005Z,99744.74
2023-04-17T19:23:04.049Z,99741.61
2023-04-17T19:25:32.245Z,99743.52
2023-04-17T19:28:00.215Z,99748.55
2023-04-17T19:30:28.346Z,99739.31
2023-04-17T19:32:56.573Z,99740.45
2023-04-17T19:35:24.478Z,99736.89
2023-04-17T19:37:52.475Z,99737.70
2023-04-17T19:40:25.090Z,99740.19
2023-04-17T19:42:54.208Z,99735.61
2023-04-17T19:45:22.694Z,99731.77
2023-04-17T19:47:56.153Z,99732.61
2023-04-17T19:50:27.089Z,99735.02
2023-04-17T19:52:56.231Z,99734.45
2023-04-17T19:55:24.430Z,99738.48
2023-04-17T19:57:52.573Z,99737.94
2023-04-17T20:00:20.898Z,99734.58
2023-04-17T20:02:48.874Z,99733.34
2023-04-17T20:05:18.402Z,99737.33
2023-04-17T20:07:46.357Z,99742.81
2023-04-17T20:10:14.292Z,99741.63
2023-04-17T20:12:42.216Z,99739.12
2023-04-17T20:15:10.759Z,99742.65
2023-04-17T20:17:38.649Z,99741.09
2023-04-17T20:20:07.127Z,99742.89
2023-04-17T20:22:35.044Z,99743.14
2023-04-17T20:25:03.012Z,99743.20
2023-04-17T20:27:31.060Z,99743.05
2023-04-17T20:29:59.023Z,99744.30
2023-04-17T20:32:26.984Z,99740.51
2023-04-17T20:34:54.863Z,99741.30
2023-04-17T20:37:23.836Z,99745.65
2023-04-17T20:39:51.829Z,99745.55
2023-04-17T20:42:19.716Z,99747.88
2023-04-17T20:44:47.591Z,99748.70
2023-04-17T20:47:15.625Z,99748.36
2023-04-17T20:49:43.510Z,99746.12
2023-04-17T20:52:11.380Z,99749.29
2023-04-17T20:54:39.191Z,99750.39
2023-04-17T20:57:07.046Z,99746.09
2023-04-17T20:59:36.532Z,99749.38
2023-04-17T21:02:04.511Z,99752.16
2023-04-17T21:04:32.540Z,99755.89
2023-04-17T21:07:00.876Z,99754.20
2023-04-17T21:09:28.854Z,99751.67
2023-04-17T21:11:56.712Z,99751.02
2023-04-17T21:14:24.618Z,99755.78
2023-04-17T21:16:54.875Z,99756.83
2023-04-17T21:19:24.249Z,99761.85
2023-04-17T21:21:52.994Z,99760.74
2023-04-17T21:24:21.151Z,99759.95
2023-04-17T21:26:49.001Z,99759.16
2023-04-17T21:29:16.917Z,99761.49
2023-04-17T21:31:44.815Z,99756.63
2023-04-17T21:34:12.968Z,99760.39
2023-04-17T21:36:40.975Z,99761.90
2023-04-17T21:39:09.583Z,99761.72
2023-04-17T21:41:37.804Z,99767.21
2023-04-17T21:44:05.855Z,99768.15
2023-04-17T21:46:33.779Z,99767.93
2023-04-17T21:49:01.694Z,99770.98
2023-04-17T21:51:30.020Z,99769.38
2023-04-17T21:53:57.984Z,99767.33
2023-04-17T22:09:44.978Z,99765.02
2023-04-17T22:12:14.445Z,99763.92
2023-04-17T22:14:42.334Z,99769.80
2023-04-17T22:17:10.226Z,99774.52
2023-04-17T22:19:38.074Z,99771.09
2023-04-17T22:22:06.022Z,99770.11
2023-04-17T22:24:33.964Z,99770.84
2023-04-17T22:27:02.125Z,99770.73
2023-04-17T22:29:30.052Z,99772.31
2023-04-17T22:31:57.997Z,99771.32
2023-04-17T22:34:25.884Z,99770.52
2023-04-17T22:36:53.744Z,99765.64
2023-04-17T22:39:21.744Z,99763.36
2023-04-17T22:41:49.780Z,99765.52
2023-04-17T22:44:17.644Z,99770.95
2023-04-17T22:46:45.661Z,99770.77
2023-04-17T22:49:14.648Z,99771.25
2023-04-17T22:51:43.252Z,99770.19
2023-04-17T22:54:21.458Z,99772.61
2023-04-17T22:56:50.821Z,99775.08
2023-04-17T22:59:18.719Z,99775.19
2023-04-17T23:01:46.616Z,99779.46
2023-04-17T23:04:14.824Z,99778.98
2023-04-17T23:06:42.976Z,99778.04
2023-04-17T23:09:11.228Z,99779.98
2023-04-17T23:11:39.400Z,99776.98
2023-04-17T23:14:07.544Z,99775.05
2023-04-17T23:16:35.551Z,99774.98
2023-04-17T23:19:03.617Z,99773.14
2023-04-17T23:21:31.577Z,99770.45
2023-04-17T23:23:59.529Z,99764.66
2023-04-17T23:26:27.533Z,99765.71
2023-04-17T23:28:55.834Z,99764.27
2023-04-17T23:31:23.855Z,99765.41
2023-04-17T23:33:51.770Z,99762.14
2023-04-17T23:36:19.712Z,99766.28
2023-04-17T23:38:47.593Z,99763.41
2023-04-17T23:41:15.493Z,99760.06
2023-04-17T23:43:43.477Z,99764.65
2023-04-17T23:46:11.452Z,99762.08
2023-04-17T23:48:39.482Z,99763.91
2023-04-17T23:51:07.474Z,99765.36
2023-04-17T23:53:35.374Z,99762.23
2023-04-17T23:56:04.204Z,99760.80
2023-04-17T23:58:32.070Z,99761.67
